Time;durP1;ratioP1;P1;durP2;ratioP2;P2;SDS_P1;SDS_P2;PMS_P1;PMS_P2;Temp;Humidity;BMP_temperature;BMP_pressure;BME280_temperature;BME280_humidity;BME280_pressure;Samples;Min_cycle;Max_cycle;Signal;HPM_P1;HPM_P2
2023/09/07 00:00:23;;;;;;;14.03;10.20;;;;;;;;;;2608938;54;20391;-74
2023/09/07 00:05:52;;;;;;;10.90;9.90;;;;;;;;;;2609731;54;20391;-74
2023/09/07 00:11:22;;;;;;;12.30;11.10;;;;;;;;;;2612470;54;20447;-75
2023/09/07 00:16:52;;;;;;;12.20;10.97;;;;;;;;;;2614186;54;20508;-75
2023/09/07 00:22:22;;;;;;;12.93;10.80;;;;;;;;;;2611722;54;20374;-75
2023/09/07 00:27:51;;;;;;;11.80;10.60;;;;;;;;;;2610711;54;20475;-76
2023/09/07 00:33:21;;;;;;;12.80;11.40;;;;;;;;;;2610603;54;20403;-75
2023/09/07 00:38:51;;;;;;;11.40;10.40;;;;;;;;;;2606691;54;20451;-75
2023/09/07 00:44:20;;;;;;;16.93;11.50;;;;;;;;;;2607639;54;20422;-75
2023/09/07 00:49:51;;;;;;;14.00;11.00;;;;;;;;;;2607019;54;20406;-76
2023/09/07 00:55:22;;;;;;;11.13;9.90;;;;;;;;;;2608019;54;20394;-75
2023/09/07 01:00:52;;;;;;;13.10;11.33;;;;;;;;;;2609113;54;20394;-76
2023/09/07 01:06:28;;;;;;;11.93;10.57;;;;;;;;;;2607938;54;20391;-75
2023/09/07 01:11:58;;;;;;;13.27;11.13;;;;;;;;;;2606990;54;20398;-77
2023/09/07 01:17:28;;;;;;;12.63;11.50;;;;;;;;;;2606042;54;20438;-77
2023/09/07 01:22:58;;;;;;;11.93;10.70;;;;;;;;;;2608207;54;20416;-77
2023/09/07 01:28:28;;;;;;;14.57;11.80;;;;;;;;;;2608431;54;21007;-76
2023/09/07 01:33:57;;;;;;;13.40;11.53;;;;;;;;;;2608375;54;20955;-75
2023/09/07 01:39:27;;;;;;;13.80;12.30;;;;;;;;;;2608778;54;20415;-77
2023/09/07 01:44:57;;;;;;;13.23;11.83;;;;;;;;;;2609230;54;20394;-76
2023/09/07 01:50:27;;;;;;;12.83;11.63;;;;;;;;;;2606946;54;20416;-77
2023/09/07 01:55:58;;;;;;;14.10;12.83;;;;;;;;;;2605744;54;20358;-76
2023/09/07 02:01:30;;;;;;;14.97;13.37;;;;;;;;;;2606404;54;20382;-75
2023/09/07 02:07:00;;;;;;;16.20;12.97;;;;;;;;;;2606655;54;20428;-75
2023/09/07 02:12:30;;;;;;;14.50;12.73;;;;;;;;;;2608048;54;20398;-76
2023/09/07 02:21:37;;;;;;;12.80;11.47;;;;;;;;;;2606621;54;20377;-76
2023/09/07 02:27:07;;;;;;;15.60;13.20;;;;;;;;;;2610339;54;20374;-75
2023/09/07 02:32:36;;;;;;;13.90;11.63;;;;;;;;;;2610392;39;20765;-74
2023/09/07 02:38:06;;;;;;;15.00;13.03;;;;;;;;;;2610636;54;20394;-75
2023/09/07 02:43:36;;;;;;;16.43;13.60;;;;;;;;;;2613336;39;21102;-75
2023/09/07 02:49:05;;;;;;;14.47;12.17;;;;;;;;;;2610517;54;20515;-75
2023/09/07 02:54:35;;;;;;;15.33;13.37;;;;;;;;;;2610063;54;20491;-76
2023/09/07 03:00:09;;;;;;;14.97;13.47;;;;;;;;;;2612816;54;20366;-76
2023/09/07 03:05:40;;;;;;;14.83;13.27;;;;;;;;;;2612490;54;20920;-74
2023/09/07 03:11:10;;;;;;;15.00;13.20;;;;;;;;;;2612252;54;20427;-76
2023/09/07 03:16:39;;;;;;;20.83;13.53;;;;;;;;;;2611004;46;20410;-76
2023/09/07 03:22:09;;;;;;;16.80;13.50;;;;;;;;;;2609760;54;20397;-78
2023/09/07 03:27:39;;;;;;;15.73;14.17;;;;;;;;;;2608894;54;20394;-75
2023/09/07 03:33:08;;;;;;;16.27;13.67;;;;;;;;;;2609437;54;20370;-76
2023/09/07 03:38:38;;;;;;;18.07;14.07;;;;;;;;;;2608935;54;20399;-75
2023/09/07 03:44:07;;;;;;;20.03;13.93;;;;;;;;;;2608308;54;20473;-77
2023/09/07 03:49:38;;;;;;;19.70;15.23;;;;;;;;;;2608318;39;20961;-77
2023/09/07 03:55:08;;;;;;;17.07;14.90;;;;;;;;;;2607107;39;20750;-75
2023/09/07 04:00:41;;;;;;;14.87;13.37;;;;;;;;;;2607825;39;20892;-75
2023/09/07 04:06:10;;;;;;;15.77;14.20;;;;;;;;;;2607608;54;20391;-75
2023/09/07 04:11:40;;;;;;;18.80;14.13;;;;;;;;;;2605524;54;20415;-74
2023/09/07 04:17:10;;;;;;;19.13;14.17;;;;;;;;;;2606662;54;20411;-76
2023/09/07 04:22:43;;;;;;;18.33;13.50;;;;;;;;;;2605931;54;20547;-78
2023/09/07 04:28:13;;;;;;;14.90;13.23;;;;;;;;;;2606805;39;20717;-75
2023/09/07 04:33:42;;;;;;;15.43;12.80;;;;;;;;;;2607481;54;20611;-75
2023/09/07 04:39:14;;;;;;;15.10;12.60;;;;;;;;;;2606517;54;20394;-75
2023/09/07 04:44:43;;;;;;;17.30;13.73;;;;;;;;;;2607883;39;20962;-76
2023/09/07 04:50:13;;;;;;;17.33;14.40;;;;;;;;;;2608816;46;20426;-75
2023/09/07 04:55:44;;;;;;;15.40;14.00;;;;;;;;;;2610351;54;20422;-75
2023/09/07 05:01:14;;;;;;;15.80;13.43;;;;;;;;;;2610603;54;20394;-75
2023/09/07 05:06:44;;;;;;;15.50;13.90;;;;;;;;;;2610083;54;20386;-74
2023/09/07 05:12:14;;;;;;;16.50;13.20;;;;;;;;;;2609726;54;20415;-75
2023/09/07 05:26:55;;;;;;;16.47;14.70;;;;;;;;;;2606423;54;20518;-75
2023/09/07 05:32:25;;;;;;;17.50;15.63;;;;;;;;;;2613711;54;20394;-76
2023/09/07 05:37:55;;;;;;;16.40;14.60;;;;;;;;;;2614108;54;20379;-74
2023/09/07 05:43:25;;;;;;;15.07;13.67;;;;;;;;;;2614028;54;20395;-75
2023/09/07 05:48:55;;;;;;;21.40;12.67;;;;;;;;;;2610592;39;20958;-75
2023/09/07 05:54:24;;;;;;;14.47;11.47;;;;;;;;;;2610248;54;20423;-75
2023/09/07 05:59:54;;;;;;;14.57;13.10;;;;;;;;;;2609418;54;20410;-75
2023/09/07 06:05:24;;;;;;;19.40;13.40;;;;;;;;;;2610290;54;20378;-75
2023/09/07 06:10:54;;;;;;;20.03;13.70;;;;;;;;;;2610099;54;20419;-76
2023/09/07 06:16:23;;;;;;;15.23;13.20;;;;;;;;;;2612240;54;20511;-74
2023/09/07 06:28:00;;;;;;;15.53;14.13;;;;;;;;;;2608139;54;20383;-75
2023/09/07 06:33:30;;;;;;;17.00;15.40;;;;;;;;;;2612936;54;20378;-76
2023/09/07 06:39:00;;;;;;;18.70;16.80;;;;;;;;;;2613301;54;20485;-77
2023/09/07 06:44:30;;;;;;;16.40;15.20;;;;;;;;;;2614726;54;20964;-77
2023/09/07 06:49:59;;;;;;;19.73;17.67;;;;;;;;;;2612832;54;20434;-78
2023/09/07 06:55:30;;;;;;;24.90;16.60;;;;;;;;;;2614335;54;20420;-78
2023/09/07 07:00:59;;;;;;;18.53;17.13;;;;;;;;;;2612297;54;20411;-76
2023/09/07 07:06:29;;;;;;;17.23;16.03;;;;;;;;;;2613972;31;20961;-77
2023/09/07 07:12:02;;;;;;;19.30;17.93;;;;;;;;;;2613501;54;20391;-77
2023/09/07 07:17:32;;;;;;;18.83;17.03;;;;;;;;;;2612593;39;20827;-75
2023/09/07 07:26:36;;;;;;;18.53;17.37;;;;;;;;;;2613644;54;20458;-77
2023/09/07 07:32:06;;;;;;;18.13;16.80;;;;;;;;;;2613478;54;20464;-76
2023/09/07 07:37:36;;;;;;;18.83;17.40;;;;;;;;;;2615284;54;20948;-76
2023/09/07 07:43:06;;;;;;;20.30;18.90;;;;;;;;;;2614793;54;20395;-77
2023/09/07 07:48:36;;;;;;;19.13;17.67;;;;;;;;;;2612995;54;20390;-76
2023/09/07 07:51:21;;;;;;;19.43;17.73;;;;;;;;;;2614523;54;20544;-77
2023/09/07 07:53:47;;;;;;;19.97;18.70;;;;;;;;;;2614513;47;20424;-75
2023/09/07 07:59:17;;;;;;;17.77;16.33;;;;;;;;;;2615631;39;20757;-77
2023/09/07 08:04:46;;;;;;;19.13;17.70;;;;;;;;;;2613887;54;20418;-79
2023/09/07 08:10:16;;;;;;;16.93;15.90;;;;;;;;;;2614486;39;21004;-79
2023/09/07 08:15:47;;;;;;;18.83;17.53;;;;;;;;;;2613616;54;20390;-78
2023/09/07 08:21:17;;;;;;;18.47;17.27;;;;;;;;;;2612644;54;20499;-78
2023/09/07 08:26:51;;;;;;;18.27;16.97;;;;;;;;;;2613432;46;20519;-78
2023/09/07 08:32:22;;;;;;;18.40;17.10;;;;;;;;;;2615373;39;20896;-79
2023/09/07 08:37:52;;;;;;;18.00;17.10;;;;;;;;;;2613741;54;21056;-79
2023/09/07 08:43:22;;;;;;;15.63;14.87;;;;;;;;;;2614129;54;20399;-79
2023/09/07 08:48:51;;;;;;;16.97;16.07;;;;;;;;;;2614217;54;20980;-79
2023/09/07 08:54:23;;;;;;;17.37;16.47;;;;;;;;;;2614425;54;20395;-79
2023/09/07 08:59:52;;;;;;;17.23;16.33;;;;;;;;;;2611778;54;20459;-79
2023/09/07 09:05:22;;;;;;;16.23;15.43;;;;;;;;;;2614506;54;20378;-78
2023/09/07 09:11:05;;;;;;;16.80;15.90;;;;;;;;;;2614816;54;20415;-77
2023/09/07 09:16:34;;;;;;;17.17;16.27;;;;;;;;;;2614557;54;20395;-78
2023/09/07 09:22:04;;;;;;;18.30;17.30;;;;;;;;;;2612965;54;20383;-78
2023/09/07 09:27:34;;;;;;;17.57;16.40;;;;;;;;;;2614205;39;20843;-78
2023/09/07 09:33:05;;;;;;;17.80;16.47;;;;;;;;;;2615215;39;20730;-78
2023/09/07 09:38:35;;;;;;;15.10;14.40;;;;;;;;;;2615348;54;20526;-79
2023/09/07 09:44:05;;;;;;;16.80;16.00;;;;;;;;;;2611483;39;20897;-80
2023/09/07 09:49:35;;;;;;;17.37;16.23;;;;;;;;;;2615162;54;20414;-78
2023/09/07 09:55:07;;;;;;;16.47;15.33;;;;;;;;;;2614781;54;20464;-78
2023/09/07 10:00:37;;;;;;;15.90;15.20;;;;;;;;;;2613551;54;20399;-78
2023/09/07 10:12:11;;;;;;;17.00;16.00;;;;;;;;;;2614742;54;20503;-79
2023/09/07 10:17:41;;;;;;;17.30;16.40;;;;;;;;;;2611534;54;20419;-78
2023/09/07 10:23:11;;;;;;;17.60;16.70;;;;;;;;;;2614246;39;20762;-77
2023/09/07 10:32:16;;;;;;;16.93;15.93;;;;;;;;;;2614377;54;20453;-77
2023/09/07 10:37:49;;;;;;;17.03;16.03;;;;;;;;;;2610985;54;20724;-77
2023/09/07 10:43:20;;;;;;;16.30;15.40;;;;;;;;;;2611942;31;20840;-77
2023/09/07 10:48:51;;;;;;;16.20;15.43;;;;;;;;;;2610308;54;20624;-77
2023/09/07 10:54:25;;;;;;;17.00;15.90;;;;;;;;;;2612864;54;20404;-77
2023/09/07 10:59:55;;;;;;;16.97;16.07;;;;;;;;;;2614570;54;20386;-77
2023/09/07 11:05:25;;;;;;;17.27;16.37;;;;;;;;;;2614578;54;20503;-77
2023/09/07 11:10:55;;;;;;;16.97;16.07;;;;;;;;;;2613289;54;20417;-78
2023/09/07 11:16:26;;;;;;;16.60;15.90;;;;;;;;;;2611224;54;20399;-77
2023/09/07 11:21:56;;;;;;;16.30;15.30;;;;;;;;;;2613991;54;20408;-77
2023/09/07 11:27:29;;;;;;;15.80;15.10;;;;;;;;;;2632059;36;20880;-77
2023/09/07 11:29:56;;;;;;;16.67;15.70;;;;;;;;;;2609146;51;20445;-77
2023/09/07 11:32:22;;;;;;;17.13;15.93;;;;;;;;;;2610472;54;21056;-79
2023/09/07 11:37:52;;;;;;;17.30;16.50;;;;;;;;;;2611957;54;21059;-79
2023/09/07 11:43:22;;;;;;;16.07;15.27;;;;;;;;;;2614784;54;20418;-78
2023/09/07 11:48:52;;;;;;;16.50;15.60;;;;;;;;;;2609716;39;20924;-78
2023/09/07 11:54:22;;;;;;;16.60;15.80;;;;;;;;;;2610437;39;20758;-78
2023/09/07 11:59:52;;;;;;;16.50;15.80;;;;;;;;;;2610104;54;20993;-78
2023/09/07 12:05:22;;;;;;;17.37;16.47;;;;;;;;;;2611768;54;20959;-79
2023/09/07 12:10:52;;;;;;;17.20;16.03;;;;;;;;;;2615034;54;20410;-79
2023/09/07 12:16:21;;;;;;;16.17;15.47;;;;;;;;;;2615984;54;20490;-79
2023/09/07 12:21:52;;;;;;;16.17;15.43;;;;;;;;;;2614220;54;21004;-82
2023/09/07 12:27:22;;;;;;;17.10;16.20;;;;;;;;;;2613278;54;20381;-80
2023/09/07 12:32:52;;;;;;;17.30;16.30;;;;;;;;;;2609273;39;21021;-82
2023/09/07 12:38:27;;;;;;;17.90;16.80;;;;;;;;;;2612101;54;20396;-79
2023/09/07 12:43:56;;;;;;;17.40;16.30;;;;;;;;;;2609090;54;21055;-78
2023/09/07 12:49:29;;;;;;;17.27;16.37;;;;;;;;;;2611159;54;21887;-79
2023/09/07 12:54:59;;;;;;;17.83;16.93;;;;;;;;;;2611636;54;20394;-78
2023/09/07 13:00:28;;;;;;;18.00;17.20;;;;;;;;;;2612776;39;20780;-78
2023/09/07 13:05:59;;;;;;;18.17;17.03;;;;;;;;;;2615459;54;20614;-78
2023/09/07 13:11:29;;;;;;;17.03;16.23;;;;;;;;;;2614509;54;20431;-79
2023/09/07 13:16:59;;;;;;;17.67;16.77;;;;;;;;;;2613881;54;20377;-78
2023/09/07 13:22:29;;;;;;;16.83;16.03;;;;;;;;;;2613869;54;20383;-77
2023/09/07 13:34:06;;;;;;;16.67;15.87;;;;;;;;;;2614523;54;20393;-79
2023/09/07 13:39:35;;;;;;;17.07;15.87;;;;;;;;;;2614947;54;20390;-80
2023/09/07 13:45:06;;;;;;;16.80;15.90;;;;;;;;;;2614525;54;20435;-78
2023/09/07 13:50:35;;;;;;;17.70;16.10;;;;;;;;;;2612254;54;20427;-80
2023/09/07 13:56:05;;;;;;;17.40;16.50;;;;;;;;;;2614441;54;20413;-76
2023/09/07 14:01:35;;;;;;;17.43;16.53;;;;;;;;;;2613618;54;20397;-76
2023/09/07 14:07:04;;;;;;;17.37;16.40;;;;;;;;;;2613631;47;20409;-77
2023/09/07 14:12:34;;;;;;;16.80;15.90;;;;;;;;;;2613063;54;20419;-77
2023/09/07 14:18:04;;;;;;;17.67;16.60;;;;;;;;;;2614058;54;20439;-77
2023/09/07 14:23:34;;;;;;;17.90;16.90;;;;;;;;;;2615022;39;21011;-77
2023/09/07 14:26:27;;;;;;;17.40;16.10;;;;;;;;;;2613107;51;20440;-77
2023/09/07 14:35:00;;;;;;;17.00;16.10;;;;;;;;;;2614826;54;20411;-77
2023/09/07 14:40:29;;;;;;;16.63;15.73;;;;;;;;;;2615156;54;20408;-77
2023/09/07 14:45:59;;;;;;;17.00;16.20;;;;;;;;;;2615183;54;20352;-79
2023/09/07 14:51:29;;;;;;;17.50;16.60;;;;;;;;;;2614914;54;20395;-78
2023/09/07 14:56:59;;;;;;;17.77;16.57;;;;;;;;;;2614614;54;20413;-77
2023/09/07 15:02:29;;;;;;;17.47;16.50;;;;;;;;;;2613803;39;20479;-78
2023/09/07 15:08:02;;;;;;;17.17;16.27;;;;;;;;;;2615269;54;20991;-78
2023/09/07 15:13:32;;;;;;;17.20;16.20;;;;;;;;;;2614441;54;20942;-78
2023/09/07 15:19:02;;;;;;;16.50;15.70;;;;;;;;;;2615153;54;20409;-78
2023/09/07 15:24:32;;;;;;;16.67;15.57;;;;;;;;;;2614290;54;20391;-79
2023/09/07 15:36:09;;;;;;;15.70;15.00;;;;;;;;;;2614586;54;20510;-79
2023/09/07 15:41:39;;;;;;;16.60;15.70;;;;;;;;;;2613371;54;20510;-78
2023/09/07 15:47:09;;;;;;;15.23;14.53;;;;;;;;;;2613139;54;20392;-79
2023/09/07 15:52:46;;;;;;;16.90;16.00;;;;;;;;;;2614218;54;20395;-79
2023/09/07 15:58:15;;;;;;;16.73;15.30;;;;;;;;;;2615208;54;20427;-78
2023/09/07 16:03:45;;;;;;;17.53;15.97;;;;;;;;;;2613916;54;20406;-79
2023/09/07 16:09:15;;;;;;;16.50;15.70;;;;;;;;;;2614501;54;20383;-80
2023/09/07 16:14:45;;;;;;;22.10;20.80;;;;;;;;;;2615216;54;20906;-80
2023/09/07 16:20:16;;;;;;;15.93;15.00;;;;;;;;;;2614765;54;20957;-78
2023/09/07 16:25:47;;;;;;;16.30;15.50;;;;;;;;;;2615039;54;20393;-79
2023/09/07 16:37:27;;;;;;;15.93;15.13;;;;;;;;;;2614077;54;20511;-78
2023/09/07 16:42:57;;;;;;;17.77;16.07;;;;;;;;;;2616589;39;20938;-79
2023/09/07 16:48:27;;;;;;;16.97;15.67;;;;;;;;;;2614579;54;20949;-79
2023/09/07 16:53:56;;;;;;;18.33;16.90;;;;;;;;;;2614508;39;20816;-79
2023/09/07 16:59:26;;;;;;;16.53;15.70;;;;;;;;;;2616192;54;20419;-78
2023/09/07 17:04:56;;;;;;;16.83;15.73;;;;;;;;;;2612603;54;20937;-79
2023/09/07 17:10:25;;;;;;;16.43;15.43;;;;;;;;;;2615232;54;21012;-78
2023/09/07 17:15:55;;;;;;;17.03;16.00;;;;;;;;;;2616396;39;20747;-78
2023/09/07 17:21:25;;;;;;;17.77;16.30;;;;;;;;;;2614256;54;20438;-79
2023/09/07 17:26:55;;;;;;;17.60;16.60;;;;;;;;;;2615822;54;20503;-78
2023/09/07 17:36:06;;;;;;;17.83;16.83;;;;;;;;;;2615792;54;20471;-77
2023/09/07 17:41:36;;;;;;;17.00;16.10;;;;;;;;;;2615118;54;20402;-77
2023/09/07 17:47:06;;;;;;;17.60;16.37;;;;;;;;;;2615467;54;20414;-77
2023/09/07 17:52:36;;;;;;;16.27;15.37;;;;;;;;;;2615240;54;20495;-78
2023/09/07 17:58:06;;;;;;;17.30;16.03;;;;;;;;;;2614889;54;20432;-77
2023/09/07 18:03:36;;;;;;;17.30;16.20;;;;;;;;;;2616118;39;20771;-77
2023/09/07 18:09:09;;;;;;;17.33;15.90;;;;;;;;;;2615136;39;20746;-78
2023/09/07 18:14:39;;;;;;;17.07;16.07;;;;;;;;;;2614931;54;20398;-76
2023/09/07 18:20:12;;;;;;;19.43;17.80;;;;;;;;;;2614228;54;20407;-78
2023/09/07 18:25:42;;;;;;;19.20;17.37;;;;;;;;;;2613925;54;20392;-80
2023/09/07 18:31:11;;;;;;;17.40;15.90;;;;;;;;;;2613365;54;20406;-77
2023/09/07 18:36:41;;;;;;;17.63;16.63;;;;;;;;;;2614479;39;20789;-77
2023/09/07 18:42:11;;;;;;;17.03;15.93;;;;;;;;;;2614735;54;20416;-78
2023/09/07 18:47:41;;;;;;;17.43;16.33;;;;;;;;;;2614035;54;20379;-80
2023/09/07 18:53:10;;;;;;;16.90;15.80;;;;;;;;;;2614000;46;20402;-79
2023/09/07 18:58:40;;;;;;;16.97;15.70;;;;;;;;;;2616012;54;20383;-79
2023/09/07 19:04:11;;;;;;;16.17;15.10;;;;;;;;;;2615483;54;20399;-78
2023/09/07 19:09:42;;;;;;;17.23;15.67;;;;;;;;;;2614599;54;20383;-77
2023/09/07 19:15:11;;;;;;;17.27;15.80;;;;;;;;;;2614410;54;20376;-79
2023/09/07 19:20:41;;;;;;;17.53;16.30;;;;;;;;;;2614594;54;20379;-78
2023/09/07 19:26:30;;;;;;;17.60;16.30;;;;;;;;;;2616128;54;20399;-79
2023/09/07 19:38:08;;;;;;;16.77;15.57;;;;;;;;;;2613310;54;20978;-77
2023/09/07 19:43:38;;;;;;;15.50;14.47;;;;;;;;;;2614816;54;20402;-78
2023/09/07 19:49:07;;;;;;;16.23;15.17;;;;;;;;;;2614575;54;20419;-77
2023/09/07 19:54:37;;;;;;;15.50;14.20;;;;;;;;;;2613155;54;20358;-77
2023/09/07 20:00:07;;;;;;;16.57;15.27;;;;;;;;;;2613732;54;20391;-77
2023/09/07 20:05:37;;;;;;;14.63;13.63;;;;;;;;;;2613653;54;20395;-79
2023/09/07 20:11:07;;;;;;;18.07;16.60;;;;;;;;;;2612885;54;21025;-77
2023/09/07 20:16:37;;;;;;;14.63;13.53;;;;;;;;;;2612462;54;20386;-77
2023/09/07 20:22:07;;;;;;;16.57;15.20;;;;;;;;;;2613610;54;20399;-78
2023/09/07 20:27:37;;;;;;;15.83;14.57;;;;;;;;;;2613015;54;20422;-77
2023/09/07 20:39:14;;;;;;;15.33;14.13;;;;;;;;;;2612704;54;20394;-76
2023/09/07 20:44:44;;;;;;;14.43;13.43;;;;;;;;;;2612133;54;20386;-78
2023/09/07 20:50:13;;;;;;;14.77;13.43;;;;;;;;;;2611954;54;20390;-78
2023/09/07 20:55:44;;;;;;;14.87;13.57;;;;;;;;;;2613492;54;20390;-78
2023/09/07 21:01:14;;;;;;;14.30;13.20;;;;;;;;;;2611852;54;20803;-79
2023/09/07 21:06:43;;;;;;;14.13;13.13;;;;;;;;;;2611924;54;20401;-79
2023/09/07 21:12:13;;;;;;;15.17;13.63;;;;;;;;;;2610743;54;20492;-78
2023/09/07 21:17:43;;;;;;;14.37;13.17;;;;;;;;;;2614959;54;20399;-79
2023/09/07 21:23:13;;;;;;;14.40;13.00;;;;;;;;;;2613122;54;20367;-78
2023/09/07 21:28:43;;;;;;;23.43;13.80;;;;;;;;;;2612567;54;20394;-78
2023/09/07 21:37:53;;;;;;;14.77;13.60;;;;;;;;;;2612909;39;20805;-77
2023/09/07 21:43:23;;;;;;;14.73;13.80;;;;;;;;;;2612070;54;20390;-79
2023/09/07 21:48:53;;;;;;;15.40;14.30;;;;;;;;;;2611090;54;21059;-78
2023/09/07 21:54:23;;;;;;;15.17;13.97;;;;;;;;;;2611631;54;20916;-79
2023/09/07 21:59:53;;;;;;;15.27;13.97;;;;;;;;;;2612128;54;20419;-78
2023/09/07 22:05:23;;;;;;;15.70;14.37;;;;;;;;;;2611898;54;20439;-81
2023/09/07 22:10:52;;;;;;;15.40;13.90;;;;;;;;;;2612478;54;20395;-81
2023/09/07 22:16:22;;;;;;;14.93;13.73;;;;;;;;;;2611509;54;20382;-81
2023/09/07 22:21:52;;;;;;;15.13;13.73;;;;;;;;;;2611396;54;20390;-81
2023/09/07 22:27:25;;;;;;;14.57;12.70;;;;;;;;;;2611959;54;20976;-80
2023/09/07 22:32:55;;;;;;;14.90;13.53;;;;;;;;;;2613240;54;20435;-81
2023/09/07 22:38:24;;;;;;;16.03;14.43;;;;;;;;;;2612505;54;20421;-81
2023/09/07 22:43:54;;;;;;;15.30;13.90;;;;;;;;;;2611506;54;20447;-81
2023/09/07 22:49:23;;;;;;;15.23;13.90;;;;;;;;;;2611919;54;20403;-81
2023/09/07 22:54:53;;;;;;;15.60;14.00;;;;;;;;;;2610851;54;20383;-80
2023/09/07 23:00:23;;;;;;;14.03;12.20;;;;;;;;;;2611237;54;20387;-79
2023/09/07 23:05:53;;;;;;;15.03;13.53;;;;;;;;;;2611884;39;20836;-80
2023/09/07 23:11:22;;;;;;;13.57;12.37;;;;;;;;;;2613866;54;20518;-78
2023/09/07 23:16:54;;;;;;;13.93;12.73;;;;;;;;;;2612217;54;20386;-82
2023/09/07 23:22:24;;;;;;;14.67;13.23;;;;;;;;;;2612940;54;20390;-81
2023/09/07 23:27:53;;;;;;;15.30;13.40;;;;;;;;;;2612401;54;20366;-80
2023/09/07 23:33:23;;;;;;;16.20;14.63;;;;;;;;;;2612369;54;20507;-81
2023/09/07 23:42:28;;;;;;;15.30;13.90;;;;;;;;;;2613039;39;20950;-81
2023/09/07 23:47:57;;;;;;;14.53;13.33;;;;;;;;;;2614496;54;20443;-81
2023/09/07 23:53:27;;;;;;;15.03;12.37;;;;;;;;;;2612501;54;20383;-82
2023/09/07 23:58:57;;;;;;;13.17;11.77;;;;;;;;;;2612500;54;20382;-80
